• Join FlightAware (Why Join?)
  • Login
  • US Flag 
01:32AM EDT


 

Airport Tracker/Info


-or-


 

Live Flight TrackerFlight Track Log ✈ AMF1694 ✈ 25-Jul-2013 ✈ KBIE - KHSI

Flight Track Log - Related Links

Times and Time Zones

All times are in EDT time to prevent confusion due to time zone crossing. See the AMF1694 flight status page for this flight to view local times or setup timezone preferences in your user account.

Time Position Orientation Groundspeed Altitude Reporting Facility
EDT Latitude Longitude Course Direction KTS MPH feet Rate Location/Type
08:39AM 40.3481 -96.8550 284° West 143 165 4,600  Level Minneapolis Center
08:40AM 40.3625 -96.9144 288° West 142 163 6,000 600 Climbing Minneapolis Center
08:41AM 40.3694 -96.9786 278° West 166 191 5,900 -60 Descending Minneapolis Center
08:42AM 40.3775 -97.0489 279° West 187 215 5,900  Level Minneapolis Center
08:43AM 40.3911 -97.1144 285° West 189 217 5,900  Level Minneapolis Center
08:44AM 40.4003 -97.1800 280° West 185 213 5,900  Level Minneapolis Center
08:45AM 40.4031 -97.2447 273° West 180 207 5,900  Level Minneapolis Center
08:46AM 40.4136 -97.3078 282° West 179 206 6,000  Climbing Minneapolis Center
08:47AM 40.4264 -97.3764 284° West 180 207 6,000 -60 Level Minneapolis Center
08:48AM 40.4319 -97.4436 276° West 183 211 5,900 -60 Descending Minneapolis Center
08:49AM 40.4308 -97.5108 269° West 183 211 5,900  Level Minneapolis Center
08:50AM 40.4289 -97.5911 268° West 182 209 5,900  Level Minneapolis Center
08:51AM 40.4261 -97.6569 267° West 181 208 6,000 -300 Climbing Minneapolis Center
08:52AM 40.4256 -97.7253 269° West 185 213 5,400 -600 Descending Minneapolis Center
08:53AM 40.4269 -97.7911 272° West 184 212 4,800 -600 Descending Minneapolis Center
08:54AM 40.4514 -97.8478 300° West 180 207 4,200 -420 Descending Minneapolis Center
08:55AM 40.4736 -97.9053 297° West 177 204 4,000 -120 Descending Minneapolis Center
08:56AM 40.4956 -97.9633 296° West 177 204 4,000  Level Minneapolis Center
08:57AM 40.5147 -98.0244 292° West 179 206 4,000  Level Minneapolis Center
08:59AM 40.5335 -98.1087 286° West  Level FlightAware Approximate
09:06AM 40.6000 -98.4167 North  Level FlightAware Approximate
09:07AM 40.6053 -98.4279 North  Level Estimated
09:08AM 40.6053 -98.4279 North  Level Estimated